Time;durP1;ratioP1;P1;durP2;ratioP2;P2;SDS_P1;SDS_P2;PMS_P1;PMS_P2;Temp;Humidity;BMP_temperature;BMP_pressure;BME280_temperature;BME280_humidity;BME280_pressure;Samples;Min_cycle;Max_cycle;Signal;HPM_P1;HPM_P2
2022/11/21 00:01:38;;;;;;;9.90;3.17;;;7.10;99.90;;;;;;5054892;28;20205;-91
2022/11/21 00:04:06;;;;;;;7.67;2.67;;;7.00;99.90;;;;;;5055074;28;20205;-89
2022/11/21 00:06:33;;;;;;;9.20;3.50;;;7.10;99.90;;;;;;5055258;28;20218;-90
2022/11/21 00:09:00;;;;;;;10.17;3.10;;;7.00;99.90;;;;;;5041924;28;20213;-89
2022/11/21 00:11:27;;;;;;;8.30;3.13;;;7.10;99.90;;;;;;5055250;28;20221;-89
2022/11/21 00:13:54;;;;;;;9.97;3.83;;;7.10;99.90;;;;;;5054808;28;20202;-89
2022/11/21 00:16:21;;;;;;;6.47;2.80;;;7.10;99.90;;;;;;5054962;28;20198;-88
2022/11/21 00:18:49;;;;;;;7.47;3.30;;;7.10;99.90;;;;;;5055019;28;20225;-90
2022/11/21 00:21:19;;;;;;;7.78;3.22;;;7.10;99.90;;;;;;5054446;28;20448;-88
2022/11/21 00:23:47;;;;;;;11.07;3.60;;;7.20;99.90;;;;;;5054280;28;20722;-88
2022/11/21 00:26:15;;;;;;;10.03;3.87;;;7.20;99.90;;;;;;5054659;28;20281;-88
2022/11/21 00:28:42;;;;;;;15.33;3.30;;;7.20;99.90;;;;;;5054360;28;20206;-89
2022/11/21 00:31:09;;;;;;;8.47;3.13;;;7.20;99.90;;;;;;5053935;28;20661;-89
2022/11/21 00:33:37;;;;;;;7.80;2.90;;;7.20;99.90;;;;;;5054589;28;20567;-89
2022/11/21 00:36:09;;;;;;;8.17;3.20;;;7.20;99.90;;;;;;5054048;28;20195;-89
2022/11/21 00:38:36;;;;;;;9.17;2.90;;;7.20;99.90;;;;;;5054425;28;20230;-90
2022/11/21 00:41:03;;;;;;;13.10;3.00;;;7.30;99.90;;;;;;5054401;28;20206;-90
2022/11/21 00:43:30;;;;;;;9.77;3.03;;;7.20;99.90;;;;;;5053623;28;20201;-90
2022/11/21 00:45:58;;;;;;;10.23;3.20;;;7.50;99.90;;;;;;5053857;28;20222;-88
2022/11/21 00:48:25;;;;;;;6.37;2.60;;;7.30;99.90;;;;;;5053789;28;20202;-88
2022/11/21 00:50:51;;;;;;;13.53;3.33;;;7.30;99.90;;;;;;5054296;28;20210;-88
2022/11/21 00:53:19;;;;;;;8.97;2.73;;;7.30;99.90;;;;;;5053685;28;20222;-89
2022/11/21 00:55:46;;;;;;;10.67;2.80;;;7.40;99.90;;;;;;5053985;28;20200;-89
2022/11/21 00:58:13;;;;;;;12.67;3.07;;;7.30;99.90;;;;;;5053445;28;20618;-89
2022/11/21 01:00:40;;;;;;;12.37;2.50;;;7.30;99.90;;;;;;5054042;28;20225;-89
2022/11/21 01:03:06;;;;;;;8.87;2.30;;;7.40;99.90;;;;;;5052996;28;20198;-87
2022/11/21 01:05:33;;;;;;;6.97;2.10;;;7.30;99.90;;;;;;5053713;28;20714;-87
2022/11/21 01:08:00;;;;;;;5.73;2.07;;;7.20;99.90;;;;;;5053847;28;20658;-90
2022/11/21 01:10:28;;;;;;;7.43;2.40;;;7.20;99.90;;;;;;5053822;28;20194;-88
2022/11/21 01:12:55;;;;;;;9.27;2.10;;;7.20;99.90;;;;;;5053910;28;20195;-89
2022/11/21 01:15:22;;;;;;;7.60;2.27;;;7.30;99.90;;;;;;5053268;28;20194;-90
2022/11/21 01:17:49;;;;;;;7.17;2.30;;;7.20;99.90;;;;;;5054137;28;20210;-89
2022/11/21 01:20:16;;;;;;;6.13;2.53;;;7.30;99.90;;;;;;5053851;28;20203;-90
2022/11/21 01:22:42;;;;;;;12.17;2.60;;;7.40;99.90;;;;;;5054196;28;20206;-89
2022/11/21 01:25:10;;;;;;;4.57;2.10;;;7.40;99.90;;;;;;5054054;28;20198;-90
2022/11/21 01:27:38;;;;;;;6.83;2.40;;;7.40;99.90;;;;;;5053653;28;20213;-91
2022/11/21 01:30:06;;;;;;;9.83;2.40;;;7.30;99.90;;;;;;5054009;28;20653;-89
2022/11/21 01:32:32;;;;;;;6.80;2.50;;;7.20;99.90;;;;;;5053462;28;20213;-89
2022/11/21 01:34:59;;;;;;;4.67;2.30;;;7.20;99.90;;;;;;5053917;28;20220;-90
2022/11/21 01:37:26;;;;;;;9.17;2.80;;;7.20;99.90;;;;;;5052838;28;20202;-90
2022/11/21 01:39:54;;;;;;;6.97;2.03;;;7.30;99.90;;;;;;5048246;28;20222;-89
2022/11/21 01:42:20;;;;;;;6.70;2.13;;;7.30;99.90;;;;;;5045276;28;20550;-89
2022/11/21 01:44:52;;;;;;;5.60;2.50;;;7.40;99.90;;;;;;5052052;28;20218;-89
2022/11/21 01:47:21;;;;;;;5.73;1.83;;;7.30;99.90;;;;;;5053431;28;20747;-89
2022/11/21 01:49:49;;;;;;;9.00;2.47;;;7.20;99.90;;;;;;5053245;28;20249;-87
2022/11/21 01:52:21;;;;;;;6.00;2.23;;;7.20;99.90;;;;;;5052877;28;20292;-87
2022/11/21 01:54:54;;;;;;;9.07;2.60;;;7.10;99.90;;;;;;5053219;28;20671;-89
2022/11/21 01:57:24;;;;;;;6.53;2.20;;;7.10;99.90;;;;;;5053111;28;20211;-88
2022/11/21 02:00:02;;;;;;;7.27;2.27;;;7.10;99.90;;;;;;5039261;28;20218;-88
2022/11/21 02:02:35;;;;;;;7.57;2.70;;;7.10;99.90;;;;;;5035852;28;20198;-88
2022/11/21 02:05:08;;;;;;;5.47;2.20;;;7.00;99.90;;;;;;5040346;28;20210;-89
2022/11/21 02:07:43;;;;;;;8.23;2.03;;;6.90;99.90;;;;;;5053145;28;20199;-91
2022/11/21 02:10:11;;;;;;;4.57;2.00;;;6.90;99.90;;;;;;5040307;28;20198;-89
2022/11/21 02:12:43;;;;;;;7.33;1.73;;;6.90;99.90;;;;;;5052553;28;20202;-89
2022/11/21 02:15:12;;;;;;;5.20;2.00;;;6.90;99.90;;;;;;5055790;28;20209;-90
2022/11/21 02:17:39;;;;;;;5.57;2.23;;;6.80;99.90;;;;;;5056921;28;20570;-90
2022/11/21 02:20:08;;;;;;;5.90;2.23;;;6.90;99.90;;;;;;5056909;28;20218;-89
2022/11/21 02:22:42;;;;;;;8.30;2.37;;;6.90;99.90;;;;;;5057204;28;20576;-89
2022/11/21 02:25:14;;;;;;;6.17;2.07;;;6.90;99.90;;;;;;5056894;28;20198;-89
2022/11/21 02:27:42;;;;;;;5.73;2.27;;;6.90;99.90;;;;;;5056624;28;20205;-88
2022/11/21 02:30:10;;;;;;;3.60;1.63;;;6.90;99.90;;;;;;5057177;28;20206;-90
2022/11/21 02:32:44;;;;;;;5.00;2.17;;;6.90;99.90;;;;;;5057137;28;20213;-89
2022/11/21 02:35:18;;;;;;;7.17;1.90;;;7.00;99.90;;;;;;5056545;28;20242;-89
2022/11/21 02:37:51;;;;;;;6.43;1.67;;;7.00;99.90;;;;;;5056790;28;20209;-88
2022/11/21 02:40:25;;;;;;;7.63;2.17;;;7.00;99.90;;;;;;5037996;28;20437;-89
2022/11/21 02:43:00;;;;;;;8.03;1.80;;;7.10;99.90;;;;;;5056692;28;20198;-90
2022/11/21 02:45:31;;;;;;;7.97;2.00;;;7.10;99.90;;;;;;5056598;28;20212;-90
2022/11/21 02:47:57;;;;;;;3.37;1.60;;;7.10;99.90;;;;;;5056850;28;20575;-89
2022/11/21 02:50:27;;;;;;;3.73;1.80;;;7.10;99.90;;;;;;5056385;28;20198;-88
2022/11/21 02:52:55;;;;;;;4.77;1.80;;;7.10;99.90;;;;;;5055783;28;20227;-90
2022/11/21 02:55:25;;;;;;;5.33;1.30;;;7.20;99.90;;;;;;5052664;28;20206;-88
2022/11/21 02:57:53;;;;;;;3.03;1.53;;;7.20;99.90;;;;;;5054280;28;20203;-91
2022/11/21 03:00:21;;;;;;;6.57;1.47;;;7.20;99.90;;;;;;5056087;28;20230;-89
2022/11/21 03:02:48;;;;;;;7.87;1.57;;;7.10;99.90;;;;;;5056055;28;20202;-91
2022/11/21 03:05:17;;;;;;;4.63;1.73;;;7.10;99.90;;;;;;5055869;28;20210;-89
2022/11/21 03:07:44;;;;;;;6.95;2.00;;;7.20;99.90;;;;;;5055871;28;20441;-88
2022/11/21 03:10:11;;;;;;;6.27;1.67;;;7.20;99.90;;;;;;5055827;28;20202;-88
2022/11/21 03:12:41;;;;;;;3.00;1.40;;;7.20;99.90;;;;;;5056158;28;20206;-90
2022/11/21 03:15:15;;;;;;;7.87;1.70;;;7.20;99.90;;;;;;5056297;28;20206;-91
2022/11/21 03:17:43;;;;;;;5.33;1.37;;;7.20;99.90;;;;;;5056198;28;20214;-88
2022/11/21 03:20:11;;;;;;;3.37;1.60;;;7.20;99.90;;;;;;5056058;28;20222;-88
2022/11/21 03:22:44;;;;;;;5.67;2.07;;;7.20;99.90;;;;;;5055733;28;20198;-88
2022/11/21 03:25:17;;;;;;;4.63;1.70;;;7.20;99.90;;;;;;5055759;28;20206;-87
2022/11/21 03:27:45;;;;;;;7.20;1.90;;;7.10;99.90;;;;;;5055685;28;20199;-89
2022/11/21 03:30:14;;;;;;;3.00;1.53;;;7.20;99.90;;;;;;5055807;28;20587;-89
2022/11/21 03:32:41;;;;;;;6.47;2.30;;;7.20;99.90;;;;;;5056035;28;20209;-89
2022/11/21 03:35:10;;;;;;;3.23;1.53;;;7.20;99.90;;;;;;5055406;28;20203;-88
2022/11/21 03:37:37;;;;;;;8.02;2.40;;;7.00;99.90;;;;;;5054296;28;20431;-90
2022/11/21 03:40:04;;;;;;;3.57;1.83;;;7.20;99.90;;;;;;5055165;28;20245;-88
2022/11/21 03:42:32;;;;;;;9.20;2.20;;;7.10;99.90;;;;;;5055423;28;20662;-89
2022/11/21 03:45:00;;;;;;;8.37;2.10;;;7.00;99.90;;;;;;5055433;28;20649;-88
2022/11/21 03:47:28;;;;;;;5.00;1.83;;;7.10;99.90;;;;;;5055252;28;20222;-88
2022/11/21 03:49:54;;;;;;;7.77;1.87;;;7.00;99.90;;;;;;5054979;28;20195;-90
2022/11/21 03:52:21;;;;;;;6.73;1.67;;;7.10;99.90;;;;;;5055532;28;20199;-87
2022/11/21 03:54:50;;;;;;;6.73;2.87;;;7.20;99.90;;;;;;5055008;28;20202;-89
2022/11/21 03:57:17;;;;;;;3.80;1.63;;;7.10;99.90;;;;;;5054977;28;20218;-89
2022/11/21 03:59:44;;;;;;;5.67;1.80;;;7.10;99.90;;;;;;5054882;28;20252;-88
2022/11/21 04:02:14;;;;;;;7.10;2.30;;;7.10;99.90;;;;;;5055368;28;20285;-88
2022/11/21 04:04:41;;;;;;;5.63;1.98;;;7.00;99.90;;;;;;5054796;28;20426;-89
2022/11/21 04:07:09;;;;;;;4.30;1.93;;;7.00;99.90;;;;;;5055012;28;20233;-88
2022/11/21 04:09:36;;;;;;;4.87;1.70;;;6.90;99.90;;;;;;5054524;28;20205;-91
2022/11/21 04:12:03;;;;;;;8.70;2.00;;;7.00;99.90;;;;;;5054814;28;20216;-88
2022/11/21 04:14:30;;;;;;;4.00;1.87;;;6.90;99.90;;;;;;5055175;28;20212;-89
2022/11/21 04:16:57;;;;;;;7.20;1.53;;;7.00;99.90;;;;;;5054572;28;20568;-88
2022/11/21 04:19:25;;;;;;;4.20;1.80;;;7.00;99.90;;;;;;5055108;28;20601;-89
2022/11/21 04:21:52;;;;;;;4.40;2.03;;;7.00;99.90;;;;;;5054488;28;20643;-91
2022/11/21 04:24:20;;;;;;;3.07;1.80;;;7.00;99.90;;;;;;5054581;28;20190;-89
2022/11/21 04:26:48;;;;;;;3.97;2.17;;;7.00;99.90;;;;;;5053558;28;20207;-89
2022/11/21 04:29:15;;;;;;;6.80;1.60;;;7.00;99.90;;;;;;5054917;28;20206;-90
2022/11/21 04:31:42;;;;;;;5.53;1.87;;;6.90;99.90;;;;;;5054760;28;20207;-90
2022/11/21 04:34:11;;;;;;;6.30;2.25;;;6.80;99.90;;;;;;5054120;28;20433;-88
2022/11/21 04:36:40;;;;;;;6.77;1.83;;;6.80;99.90;;;;;;5054523;28;20191;-88
2022/11/21 04:39:07;;;;;;;5.43;1.73;;;6.70;99.90;;;;;;5054583;28;20214;-90
2022/11/21 04:41:35;;;;;;;8.60;2.03;;;6.70;99.90;;;;;;5054531;28;20195;-88
2022/11/21 04:44:07;;;;;;;6.93;1.77;;;6.60;99.90;;;;;;5054605;28;20202;-90
2022/11/21 04:46:34;;;;;;;7.10;2.17;;;6.70;99.90;;;;;;5054304;28;20214;-89
2022/11/21 04:49:01;;;;;;;5.27;2.43;;;6.60;99.90;;;;;;5054510;28;20206;-88
2022/11/21 04:51:28;;;;;;;4.33;1.77;;;6.60;99.90;;;;;;5054494;28;20210;-88
2022/11/21 04:53:57;;;;;;;8.03;2.37;;;6.60;99.90;;;;;;5053881;28;20237;-88
2022/11/21 04:56:25;;;;;;;5.23;1.50;;;6.60;99.90;;;;;;5054532;28;20199;-88
2022/11/21 04:58:52;;;;;;;3.43;1.80;;;6.40;99.90;;;;;;5054042;28;20206;-90
2022/11/21 05:01:19;;;;;;;6.43;2.17;;;6.40;99.90;;;;;;5054264;28;20614;-87
2022/11/21 05:03:48;;;;;;;6.77;1.93;;;6.40;99.90;;;;;;5054319;28;20197;-91
2022/11/21 05:06:15;;;;;;;5.17;2.27;;;6.30;99.90;;;;;;5054144;28;20206;-90
2022/11/21 05:08:41;;;;;;;5.73;2.20;;;6.30;99.90;;;;;;5054394;28;20196;-90
2022/11/21 05:13:54;;;;;;;7.03;2.07;;;6.20;99.90;;;;;;5054278;28;20185;-88
2022/11/21 05:16:20;;;;;;;3.67;1.83;;;6.10;99.90;;;;;;5054690;28;20260;-90
2022/11/21 05:18:47;;;;;;;4.97;1.57;;;6.30;99.90;;;;;;5053801;28;20198;-90
2022/11/21 05:21:15;;;;;;;9.67;1.80;;;6.10;99.90;;;;;;5054056;28;20288;-89
2022/11/21 05:23:42;;;;;;;5.97;1.90;;;6.20;99.90;;;;;;5054054;28;20206;-90
2022/11/21 05:26:12;;;;;;;5.53;1.67;;;6.30;99.90;;;;;;5054081;28;20213;-92
2022/11/21 05:28:39;;;;;;;6.17;2.20;;;6.10;99.90;;;;;;5053725;28;20198;-89
2022/11/21 05:31:06;;;;;;;3.78;1.80;;;6.10;99.90;;;;;;5053649;28;20437;-91
2022/11/21 05:33:33;;;;;;;4.87;2.13;;;6.10;99.90;;;;;;5053782;28;20186;-89
2022/11/21 05:36:00;;;;;;;6.13;1.90;;;6.00;99.90;;;;;;5053971;28;20187;-90
2022/11/21 05:38:27;;;;;;;6.27;2.13;;;6.10;99.90;;;;;;5053825;28;20198;-90
2022/11/21 05:40:54;;;;;;;6.87;1.50;;;6.00;99.90;;;;;;5053973;28;20218;-90
2022/11/21 05:46:11;;;;;;;6.67;2.67;;;5.90;99.90;;;;;;5053510;28;20209;-92
2022/11/21 05:48:37;;;;;;;6.40;2.30;;;5.90;99.90;;;;;;5053012;28;20206;-89
2022/11/21 05:51:05;;;;;;;4.47;2.17;;;5.90;99.90;;;;;;5053436;28;20206;-92
2022/11/21 05:53:31;;;;;;;7.63;2.33;;;5.80;99.90;;;;;;5053425;28;20218;-89
2022/11/21 05:56:03;;;;;;;4.60;2.10;;;5.80;99.90;;;;;;5053531;28;20202;-91
2022/11/21 05:58:31;;;;;;;4.43;2.07;;;5.70;99.90;;;;;;5053629;28;20241;-91
2022/11/21 06:00:59;;;;;;;8.40;2.80;;;5.60;99.90;;;;;;5051834;28;20805;-90
2022/11/21 06:03:33;;;;;;;4.87;2.20;;;5.60;99.90;;;;;;5043663;28;20203;-88
2022/11/21 06:06:03;;;;;;;5.73;2.37;;;5.50;99.90;;;;;;5050184;28;20203;-88
2022/11/21 06:08:34;;;;;;;5.87;2.50;;;5.60;99.90;;;;;;5053286;28;20210;-90
2022/11/21 06:11:01;;;;;;;6.63;2.70;;;5.50;99.90;;;;;;5039674;28;20198;-89
2022/11/21 06:13:28;;;;;;;5.00;2.30;;;5.50;99.90;;;;;;5053188;28;20213;-91
2022/11/21 06:16:01;;;;;;;10.67;2.00;;;5.40;99.90;;;;;;5053417;28;20194;-91
2022/11/21 06:18:32;;;;;;;7.10;2.60;;;5.40;99.90;;;;;;5053107;28;20248;-89
2022/11/21 06:21:03;;;;;;;6.70;2.50;;;5.40;99.90;;;;;;5052824;28;20233;-89
2022/11/21 06:23:31;;;;;;;3.00;2.00;;;5.30;99.90;;;;;;5053584;28;20203;-89
2022/11/21 06:25:59;;;;;;;6.93;1.80;;;5.20;99.90;;;;;;5035624;28;20206;-89
2022/11/21 06:28:26;;;;;;;6.53;2.77;;;5.20;99.90;;;;;;5052732;28;20206;-88
2022/11/21 06:30:56;;;;;;;6.53;2.50;;;5.20;99.90;;;;;;5052941;28;20658;-89
2022/11/21 06:33:24;;;;;;;10.40;2.70;;;5.10;99.90;;;;;;5052805;28;20206;-88
2022/11/21 06:35:52;;;;;;;6.13;2.53;;;5.10;99.90;;;;;;5052739;28;20653;-91
2022/11/21 06:38:21;;;;;;;10.10;2.63;;;5.00;99.90;;;;;;5039434;28;20202;-88
2022/11/21 06:40:49;;;;;;;5.53;2.43;;;5.00;99.90;;;;;;5052847;28;20613;-88
2022/11/21 06:43:17;;;;;;;6.93;2.63;;;5.10;99.90;;;;;;5053025;28;20203;-91
2022/11/21 06:45:44;;;;;;;7.53;3.00;;;5.10;99.90;;;;;;5035022;28;20221;-88
2022/11/21 06:48:16;;;;;;;9.60;2.90;;;5.10;99.90;;;;;;5052885;28;20213;-91
2022/11/21 06:50:49;;;;;;;11.00;2.83;;;5.00;99.90;;;;;;5048147;28;20646;-88
2022/11/21 06:53:16;;;;;;;7.17;2.70;;;5.00;99.90;;;;;;5044223;28;20227;-91
2022/11/21 06:55:43;;;;;;;7.83;3.30;;;5.00;99.90;;;;;;5052796;28;20203;-89
2022/11/21 06:58:11;;;;;;;9.27;3.13;;;5.00;99.90;;;;;;5052821;28;20202;-91
2022/11/21 07:00:39;;;;;;;8.90;3.10;;;5.00;99.90;;;;;;5053331;28;20420;-87
2022/11/21 07:03:06;;;;;;;9.50;3.17;;;4.90;99.90;;;;;;5056378;28;20299;-91
2022/11/21 07:05:38;;;;;;;6.37;3.30;;;4.80;99.90;;;;;;5056777;28;20206;-90
2022/11/21 07:08:07;;;;;;;8.17;3.60;;;4.80;99.90;;;;;;5056883;28;20210;-90
2022/11/21 07:10:37;;;;;;;12.23;3.37;;;4.80;99.90;;;;;;5056835;28;20213;-91
2022/11/21 07:16:04;;;;;;;5.23;2.90;;;4.70;99.90;;;;;;5045109;28;20206;-90
2022/11/21 07:18:31;;;;;;;6.80;3.37;;;4.80;99.90;;;;;;5056312;28;20206;-91
2022/11/21 07:20:59;;;;;;;8.77;3.13;;;4.70;99.90;;;;;;5056278;28;20234;-90
2022/11/21 07:23:30;;;;;;;7.87;3.13;;;4.60;99.90;;;;;;5056681;28;20606;-91
2022/11/21 07:26:00;;;;;;;13.50;3.40;;;4.60;99.90;;;;;;5056294;28;20230;-91
2022/11/21 07:28:27;;;;;;;15.50;3.03;;;4.60;99.90;;;;;;5056032;28;20206;-90
2022/11/21 07:30:58;;;;;;;7.67;2.97;;;4.60;99.90;;;;;;5055799;28;20198;-91
2022/11/21 07:33:25;;;;;;;13.53;2.97;;;4.70;99.90;;;;;;5055980;28;20214;-92
2022/11/21 07:35:52;;;;;;;9.93;2.43;;;4.70;99.90;;;;;;5055957;28;20207;-90
2022/11/21 07:38:19;;;;;;;14.20;3.57;;;4.80;99.90;;;;;;5053295;28;20202;-89
2022/11/21 07:40:48;;;;;;;10.13;3.33;;;4.70;99.90;;;;;;5044087;28;20233;-88
2022/11/21 07:43:14;;;;;;;8.00;2.63;;;4.70;99.90;;;;;;5049220;28;20210;-91
2022/11/21 07:45:43;;;;;;;8.97;3.00;;;4.80;99.90;;;;;;5049660;28;20221;-89
2022/11/21 07:48:12;;;;;;;9.80;2.57;;;4.80;99.90;;;;;;5052824;28;20202;-91
2022/11/21 07:50:40;;;;;;;12.70;3.00;;;4.70;99.90;;;;;;5052760;28;20272;-89
2022/11/21 07:53:10;;;;;;;6.30;3.00;;;4.80;99.90;;;;;;5052600;28;20225;-91
2022/11/21 07:55:37;;;;;;;7.33;2.67;;;4.80;99.90;;;;;;5050118;28;20704;-86
2022/11/21 07:58:09;;;;;;;7.90;3.20;;;4.80;99.90;;;;;;5049564;28;20211;-91
2022/11/21 08:00:38;;;;;;;8.63;2.70;;;4.70;99.90;;;;;;5054496;28;20230;-87
2022/11/21 08:03:05;;;;;;;9.40;2.97;;;4.90;99.90;;;;;;5052094;28;20692;-88
2022/11/21 08:05:36;;;;;;;8.87;3.00;;;4.90;99.90;;;;;;5052382;28;20298;-86
2022/11/21 08:08:03;;;;;;;13.77;3.70;;;4.90;99.90;;;;;;5041068;28;20203;-89
2022/11/21 08:10:31;;;;;;;9.50;3.47;;;5.00;99.90;;;;;;5053349;28;20210;-89
2022/11/21 08:12:58;;;;;;;9.83;3.10;;;5.00;99.90;;;;;;5055030;28;20206;-91
2022/11/21 08:15:27;;;;;;;10.97;3.57;;;5.00;99.90;;;;;;5054973;28;20206;-88
2022/11/21 08:17:54;;;;;;;11.20;3.63;;;5.10;99.90;;;;;;5055090;28;20210;-87
2022/11/21 08:20:23;;;;;;;8.10;2.70;;;5.20;99.90;;;;;;5054720;28;20226;-92
2022/11/21 08:22:51;;;;;;;10.37;3.63;;;5.10;99.90;;;;;;5055246;28;20206;-90
2022/11/21 08:25:18;;;;;;;9.03;3.03;;;5.20;99.90;;;;;;5055415;28;20203;-90
2022/11/21 08:27:45;;;;;;;7.37;3.30;;;5.10;99.90;;;;;;5054618;28;20650;-89
2022/11/21 08:30:14;;;;;;;9.27;3.20;;;5.10;99.90;;;;;;5054833;28;20233;-88
2022/11/21 08:32:42;;;;;;;8.17;2.93;;;5.30;99.90;;;;;;5055258;28;20217;-90
2022/11/21 08:35:09;;;;;;;5.90;2.90;;;5.40;99.90;;;;;;5054700;28;20217;-90
2022/11/21 08:37:36;;;;;;;4.30;2.40;;;5.30;99.90;;;;;;5054289;28;20658;-87
2022/11/21 08:40:06;;;;;;;7.73;2.87;;;5.40;99.90;;;;;;5054514;28;20640;-91
2022/11/21 08:42:36;;;;;;;7.40;3.00;;;5.40;99.90;;;;;;5054498;28;20210;-89
2022/11/21 08:45:04;;;;;;;9.40;3.23;;;5.50;99.90;;;;;;5054359;28;20210;-92
2022/11/21 08:47:33;;;;;;;8.33;3.33;;;5.60;99.90;;;;;;5054566;28;20609;-88
2022/11/21 08:50:01;;;;;;;10.00;3.50;;;5.70;99.90;;;;;;5056241;28;20209;-89
2022/11/21 08:52:28;;;;;;;10.47;3.40;;;5.80;99.90;;;;;;5051231;28;20205;-87
2022/11/21 08:54:57;;;;;;;8.50;2.83;;;5.90;99.90;;;;;;5053219;28;20213;-94
2022/11/21 08:57:25;;;;;;;8.97;3.30;;;5.80;99.90;;;;;;5055276;28;20202;-93
2022/11/21 08:59:52;;;;;;;9.17;3.23;;;5.90;99.90;;;;;;5051731;28;20202;-89
2022/11/21 09:02:20;;;;;;;8.20;3.60;;;6.00;99.90;;;;;;5053586;28;20212;-90
2022/11/21 09:04:47;;;;;;;7.37;3.87;;;6.00;99.90;;;;;;5057974;28;20206;-90
2022/11/21 09:07:16;;;;;;;9.07;3.53;;;6.00;99.90;;;;;;5051407;28;20203;-90
2022/11/21 09:09:45;;;;;;;10.27;4.10;;;6.10;99.90;;;;;;5043676;28;20673;-92
2022/11/21 09:12:11;;;;;;;9.40;3.33;;;6.20;99.90;;;;;;5046608;28;20205;-89
2022/11/21 09:20:11;;;;;;;7.80;3.37;;;6.60;99.90;;;;;;5043409;28;20229;-90
2022/11/21 09:22:43;;;;;;;10.90;3.87;;;6.50;99.90;;;;;;5054851;28;20198;-92
2022/11/21 09:25:11;;;;;;;12.80;4.20;;;6.60;99.90;;;;;;5055135;28;20206;-94
2022/11/21 09:27:41;;;;;;;6.00;3.57;;;6.70;99.90;;;;;;5056042;28;20233;-94
2022/11/21 09:30:09;;;;;;;9.97;4.20;;;6.70;99.90;;;;;;5056873;28;20198;-94
2022/11/21 09:32:36;;;;;;;10.70;4.37;;;6.70;99.90;;;;;;5057360;28;20206;-95
2022/11/21 09:35:04;;;;;;;12.73;4.23;;;6.90;99.90;;;;;;5059800;28;20731;-90
2022/11/21 09:37:35;;;;;;;9.77;4.80;;;7.00;99.90;;;;;;5058205;28;20654;-90
2022/11/21 09:40:04;;;;;;;10.77;4.87;;;7.10;99.90;;;;;;5059152;28;20214;-88
2022/11/21 09:42:55;;;;;;;15.88;6.07;;;7.20;99.90;;;;;;5061309;28;20429;-96
2022/11/21 09:45:26;;;;;;;10.97;4.37;;;7.30;99.90;;;;;;5061031;28;20222;-90
2022/11/21 09:47:53;;;;;;;13.53;4.63;;;7.40;99.90;;;;;;5061170;28;20210;-92
2022/11/21 09:50:27;;;;;;;11.47;4.33;;;7.60;99.90;;;;;;5060522;28;20206;-87
2022/11/21 09:53:00;;;;;;;13.10;4.37;;;7.60;99.90;;;;;;5059140;28;20594;-88
2022/11/21 09:55:37;;;;;;;11.40;4.87;;;7.60;99.90;;;;;;5055241;28;20191;-89
2022/11/21 09:58:16;;;;;;;10.87;4.97;;;7.60;99.90;;;;;;5056996;28;20217;-93
2022/11/21 10:00:43;;;;;;;15.70;5.27;;;7.60;99.90;;;;;;5053618;28;20233;-91
2022/11/21 10:03:12;;;;;;;15.20;5.40;;;7.70;99.90;;;;;;5047370;28;20618;-91
2022/11/21 10:05:49;;;;;;;14.27;6.60;;;7.70;99.90;;;;;;5036171;28;20195;-91
2022/11/21 10:08:23;;;;;;;16.45;7.85;;;7.60;99.90;;;;;;5052442;28;20784;-89
2022/11/21 10:11:10;;;;;;;13.17;6.53;;;7.80;99.90;;;;;;5053450;28;20213;-90
2022/11/21 10:13:54;;;;;;;12.43;6.10;;;7.60;99.90;;;;;;5053309;28;20217;-90
2022/11/21 10:16:31;;;;;;;8.60;5.60;;;7.50;99.90;;;;;;5053788;28;20209;-91
2022/11/21 10:19:30;;;;;;;10.23;5.83;;;7.30;99.90;;;;;;5053018;28;20662;-90
2022/11/21 10:22:31;;;;;;;12.40;5.70;;;7.20;99.90;;;;;;5053305;28;20238;-92
2022/11/21 10:25:06;;;;;;;10.03;5.40;;;7.30;99.90;;;;;;5053468;28;20202;-92
2022/11/21 10:27:40;;;;;;;7.23;4.73;;;7.30;99.90;;;;;;5053541;28;20202;-91
2022/11/21 10:30:15;;;;;;;6.33;4.00;;;7.30;99.90;;;;;;5053527;28;20210;-91
2022/11/21 10:32:44;;;;;;;6.17;4.27;;;7.40;99.90;;;;;;5053543;28;20201;-92
2022/11/21 10:35:19;;;;;;;9.03;3.93;;;7.40;99.90;;;;;;5054422;28;20210;-88
2022/11/21 10:37:50;;;;;;;5.53;3.53;;;7.30;99.90;;;;;;5054922;28;20206;-89
2022/11/21 10:40:29;;;;;;;9.23;4.43;;;7.50;99.90;;;;;;5056981;28;20205;-92
2022/11/21 10:45:15;;;;;;;7.83;4.40;;;7.60;99.90;;;;;;5056554;28;20206;-93
2022/11/21 10:45:52;;;;;;;6.77;4.47;;;7.70;99.90;;;;;;5049332;28;20241;-91
2022/11/21 10:48:20;;;;;;;9.67;4.97;;;8.00;99.90;;;;;;5053520;28;20196;-89
2022/11/21 10:51:10;;;;;;;7.27;4.00;;;8.00;99.90;;;;;;5054873;28;20206;-88
2022/11/21 10:56:26;;;;;;;9.20;4.27;;;8.00;99.90;;;;;;5055918;28;20213;-90
2022/11/21 10:58:56;;;;;;;5.60;3.77;;;8.10;99.90;;;;;;5056414;28;20218;-92
2022/11/21 11:01:26;;;;;;;10.20;4.43;;;8.00;99.90;;;;;;5053882;28;20226;-91
2022/11/21 11:04:06;;;;;;;7.57;4.20;;;8.30;99.90;;;;;;5042913;28;20214;-90
2022/11/21 11:06:34;;;;;;;8.70;4.73;;;8.30;99.90;;;;;;5057161;28;20206;-93
2022/11/21 11:09:21;;;;;;;7.33;4.13;;;8.30;99.90;;;;;;5056566;28;20596;-93
2022/11/21 11:11:52;;;;;;;10.37;4.37;;;8.30;99.90;;;;;;5057177;28;20186;-92
2022/11/21 11:14:32;;;;;;;6.93;4.03;;;8.40;99.90;;;;;;5052188;28;20199;-93
2022/11/21 11:17:05;;;;;;;8.83;4.33;;;8.50;99.90;;;;;;5045905;28;20264;-91
2022/11/21 11:19:34;;;;;;;12.50;5.10;;;8.50;99.90;;;;;;5036744;28;20209;-93
2022/11/21 11:22:01;;;;;;;11.23;4.60;;;8.70;99.90;;;;;;5037011;28;20242;-94
2022/11/21 11:24:31;;;;;;;9.10;4.93;;;8.60;99.90;;;;;;5047689;28;20190;-93
2022/11/21 11:27:00;;;;;;;7.63;4.20;;;8.70;99.90;;;;;;5048853;28;20230;-92
2022/11/21 11:29:29;;;;;;;13.40;5.17;;;8.70;99.90;;;;;;5039553;28;20206;-93
2022/11/21 11:32:15;;;;;;;9.53;4.50;;;8.60;99.90;;;;;;5043408;28;20665;-91
2022/11/21 11:34:50;;;;;;;8.53;4.33;;;8.60;99.90;;;;;;5056491;28;20221;-92
2022/11/21 11:37:23;;;;;;;9.50;4.80;;;8.50;99.90;;;;;;5056769;28;20209;-91
2022/11/21 11:40:02;;;;;;;11.80;5.00;;;8.70;99.90;;;;;;5056010;28;20213;-93
2022/11/21 11:49:05;;;;;;;9.33;5.17;;;8.80;99.90;;;;;;4962841;28;20204;-89
2022/11/21 11:51:39;;;;;;;10.37;5.40;;;8.60;99.90;;;;;;5056101;28;20566;-90
2022/11/21 11:54:12;;;;;;;9.47;4.63;;;8.60;99.90;;;;;;5055837;28;20226;-89
2022/11/21 11:56:39;;;;;;;12.00;5.17;;;8.80;99.90;;;;;;5068648;28;20209;-89
2022/11/21 11:59:16;;;;;;;11.30;4.73;;;8.80;99.90;;;;;;5055626;28;20210;-89
2022/11/21 12:01:50;;;;;;;13.63;5.20;;;8.90;99.90;;;;;;5055432;28;20567;-88
2022/11/21 12:04:19;;;;;;;11.43;5.37;;;8.90;99.90;;;;;;5055281;28;20210;-90
2022/11/21 12:06:51;;;;;;;13.33;4.87;;;8.90;99.90;;;;;;5059152;28;20248;-90
2022/11/21 12:09:28;;;;;;;16.17;4.27;;;9.00;99.90;;;;;;5063053;28;20202;-88
2022/11/21 12:12:10;;;;;;;12.33;5.30;;;9.00;99.90;;;;;;5035378;28;20191;-85
2022/11/21 12:17:48;;;;;;;7.73;4.03;;;9.00;99.90;;;;;;5055211;28;20240;-91
2022/11/21 12:20:20;;;;;;;6.67;4.30;;;9.30;99.90;;;;;;5055152;28;20657;-90
2022/11/21 12:22:51;;;;;;;12.27;4.93;;;9.20;99.90;;;;;;5055004;28;20241;-91
2022/11/21 12:25:21;;;;;;;12.55;5.10;;;9.10;99.90;;;;;;5054204;28;20923;-87
2022/11/21 12:27:52;;;;;;;10.97;4.87;;;9.20;99.90;;;;;;5050975;28;20546;-89
2022/11/21 12:30:46;;;;;;;12.90;5.07;;;9.30;99.90;;;;;;5054617;28;20213;-86
2022/11/21 12:33:20;;;;;;;8.27;4.07;;;9.20;99.90;;;;;;5046804;28;20194;-89
2022/11/21 12:36:05;;;;;;;8.93;3.93;;;9.20;99.90;;;;;;5054387;28;20221;-88
2022/11/21 12:38:49;;;;;;;11.93;4.50;;;9.30;99.90;;;;;;5054665;28;20206;-87
2022/11/21 12:44:26;;;;;;;10.13;4.20;;;9.30;99.90;;;;;;5055125;28;20285;-89
2022/11/21 12:47:08;;;;;;;9.47;4.57;;;9.30;99.90;;;;;;5054923;28;20275;-92
2022/11/21 12:55:36;;;;;;;7.37;4.20;;;9.50;99.90;;;;;;5054525;28;20214;-89
2022/11/21 12:58:13;;;;;;;11.80;4.07;;;9.30;99.90;;;;;;5053585;28;20716;-89
2022/11/21 13:00:52;;;;;;;11.13;4.47;;;9.40;99.90;;;;;;5053698;28;20202;-90
2022/11/21 13:03:37;;;;;;;12.03;4.47;;;9.60;99.90;;;;;;5054287;28;20214;-87
2022/11/21 13:06:12;;;;;;;9.57;4.53;;;9.60;99.90;;;;;;5041203;28;20212;-88
2022/11/21 13:08:40;;;;;;;5.37;3.87;;;9.70;99.90;;;;;;5054260;28;20288;-89
2022/11/21 13:14:04;;;;;;;6.33;3.80;;;9.60;99.90;;;;;;5053793;28;20249;-88
2022/11/21 13:16:36;;;;;;;11.37;4.23;;;9.70;99.90;;;;;;5054086;28;20207;-88
2022/11/21 13:19:16;;;;;;;15.67;3.80;;;9.80;99.90;;;;;;5053573;28;20289;-90
2022/11/21 13:21:48;;;;;;;10.67;3.77;;;9.60;99.90;;;;;;5053792;28;20313;-91
2022/11/21 13:24:49;;;;;;;9.87;3.20;;;9.70;99.90;;;;;;5054009;28;20218;-91
2022/11/21 13:27:31;;;;;;;7.87;3.37;;;9.60;99.90;;;;;;5053448;28;20208;-91
2022/11/21 13:30:22;;;;;;;9.13;3.10;;;9.70;99.90;;;;;;5053927;28;20206;-90
2022/11/21 13:32:52;;;;;;;7.27;3.43;;;9.60;99.90;;;;;;5053962;28;20198;-86
2022/11/21 13:35:56;;;;;;;8.43;2.90;;;9.60;99.90;;;;;;5053807;28;20217;-90
2022/11/21 13:38:27;;;;;;;9.73;3.10;;;9.70;99.90;;;;;;5040682;28;20573;-90
2022/11/21 13:43:36;;;;;;;12.93;3.33;;;9.80;99.90;;;;;;5038823;28;20215;-90
2022/11/21 13:46:03;;;;;;;9.10;2.70;;;9.70;99.90;;;;;;5047843;28;20206;-89
2022/11/21 13:48:59;;;;;;;8.97;2.80;;;9.60;99.90;;;;;;5053270;28;20429;-90
2022/11/21 13:51:52;;;;;;;6.23;2.30;;;9.60;99.90;;;;;;5053701;28;20448;-88
2022/11/21 13:55:06;;;;;;;6.93;2.90;;;9.70;99.90;;;;;;5034788;28;20234;-90